Shaftsbury Center, Vermont
Current Conditions -  °F | °C
As of 9:54 PM on Monday 26 Jan 2015 (Local Time) from KDDH Reporting Station
Overcast Overcast  
Wind Chill: -12°   Ceiling: 6000
Heat Index: -7°   Visibility: 10mi
Dew Point: -13°   Wind: 7mph
Humidity: 62%   Direction: 20°NNE
Pressure: 29.91"   Gusts: NA
Location:  42.9815°N, 73.2071°W
Report Text: KDDH 270254Z AUTO 02006KT 10SM OVC060 M07/M13 A2991 RMK AO2 SLP144 T10721133 58017
Loading
Personal Weather Stations






























Interactive Weather Map New forecast layout! Learn more

10-Day Weather Forecast

Advertisements
Track Severe Weather on mobile